sensor_id;sensor_type;location;lat;lon;timestamp;P1;durP1;ratioP1;P2;durP2;ratioP2
58472;SDS011;44775;51.564;5.460;2023-07-28T00:00:05;13.73;;;10.23;;
58472;SDS011;44775;51.564;5.460;2023-07-28T00:02:31;11.90;;;9.30;;
58472;SDS011;44775;51.564;5.460;2023-07-28T00:04:56;12.48;;;10.27;;
58472;SDS011;44775;51.564;5.460;2023-07-28T00:07:22;13.07;;;9.98;;
58472;SDS011;44775;51.564;5.460;2023-07-28T00:09:47;12.43;;;10.07;;
58472;SDS011;44775;51.564;5.460;2023-07-28T00:12:12;10.75;;;8.95;;
58472;SDS011;44775;51.564;5.460;2023-07-28T00:14:38;12.18;;;9.40;;
58472;SDS011;44775;51.564;5.460;2023-07-28T00:17:03;12.48;;;8.90;;
58472;SDS011;44775;51.564;5.460;2023-07-28T00:19:28;10.75;;;8.50;;
58472;SDS011;44775;51.564;5.460;2023-07-28T00:21:54;11.85;;;9.48;;
58472;SDS011;44775;51.564;5.460;2023-07-28T00:24:21;10.20;;;8.57;;
58472;SDS011;44775;51.564;5.460;2023-07-28T00:26:46;12.25;;;9.18;;
58472;SDS011;44775;51.564;5.460;2023-07-28T00:29:12;13.13;;;9.52;;
58472;SDS011;44775;51.564;5.460;2023-07-28T00:31:37;12.10;;;9.23;;
58472;SDS011;44775;51.564;5.460;2023-07-28T00:34:02;12.75;;;8.95;;
58472;SDS011;44775;51.564;5.460;2023-07-28T00:36:28;13.70;;;9.95;;
58472;SDS011;44775;51.564;5.460;2023-07-28T00:38:54;14.13;;;9.93;;
58472;SDS011;44775;51.564;5.460;2023-07-28T00:41:19;14.70;;;9.98;;
58472;SDS011;44775;51.564;5.460;2023-07-28T00:43:44;12.57;;;9.38;;
58472;SDS011;44775;51.564;5.460;2023-07-28T00:46:10;12.60;;;9.88;;
58472;SDS011;44775;51.564;5.460;2023-07-28T00:48:35;13.48;;;10.00;;
58472;SDS011;44775;51.564;5.460;2023-07-28T00:51:02;19.27;;;10.43;;
58472;SDS011;44775;51.564;5.460;2023-07-28T00:53:28;13.82;;;10.07;;
58472;SDS011;44775;51.564;5.460;2023-07-28T00:55:55;13.27;;;10.10;;
58472;SDS011;44775;51.564;5.460;2023-07-28T00:58:21;13.43;;;10.35;;
58472;SDS011;44775;51.564;5.460;2023-07-28T01:00:46;16.23;;;10.88;;
58472;SDS011;44775;51.564;5.460;2023-07-28T01:03:12;16.00;;;10.07;;
58472;SDS011;44775;51.564;5.460;2023-07-28T01:08:30;14.90;;;10.05;;
58472;SDS011;44775;51.564;5.460;2023-07-28T01:10:57;16.98;;;10.88;;
58472;SDS011;44775;51.564;5.460;2023-07-28T01:13:23;15.88;;;11.10;;
58472;SDS011;44775;51.564;5.460;2023-07-28T01:15:48;14.25;;;9.85;;
58472;SDS011;44775;51.564;5.460;2023-07-28T01:18:13;14.77;;;10.63;;
58472;SDS011;44775;51.564;5.460;2023-07-28T01:20:40;17.40;;;10.82;;
58472;SDS011;44775;51.564;5.460;2023-07-28T01:23:08;14.70;;;10.75;;
58472;SDS011;44775;51.564;5.460;2023-07-28T01:25:49;16.90;;;11.00;;
58472;SDS011;44775;51.564;5.460;2023-07-28T01:28:15;14.80;;;10.57;;
58472;SDS011;44775;51.564;5.460;2023-07-28T01:30:42;17.08;;;11.48;;
58472;SDS011;44775;51.564;5.460;2023-07-28T01:33:08;17.50;;;10.63;;
58472;SDS011;44775;51.564;5.460;2023-07-28T01:35:35;15.60;;;11.35;;
58472;SDS011;44775;51.564;5.460;2023-07-28T01:40:27;15.50;;;10.80;;
58472;SDS011;44775;51.564;5.460;2023-07-28T01:42:52;14.65;;;10.63;;
58472;SDS011;44775;51.564;5.460;2023-07-28T01:45:18;15.98;;;10.50;;
58472;SDS011;44775;51.564;5.460;2023-07-28T01:47:43;15.90;;;10.13;;
58472;SDS011;44775;51.564;5.460;2023-07-28T01:50:08;16.00;;;11.73;;
58472;SDS011;44775;51.564;5.460;2023-07-28T01:52:34;14.70;;;10.63;;
58472;SDS011;44775;51.564;5.460;2023-07-28T01:54:59;16.48;;;9.85;;
58472;SDS011;44775;51.564;5.460;2023-07-28T01:57:26;13.80;;;10.60;;
58472;SDS011;44775;51.564;5.460;2023-07-28T01:59:53;15.23;;;10.68;;
58472;SDS011;44775;51.564;5.460;2023-07-28T02:02:19;17.73;;;10.45;;
58472;SDS011;44775;51.564;5.460;2023-07-28T02:04:44;15.60;;;10.60;;
58472;SDS011;44775;51.564;5.460;2023-07-28T02:07:09;14.50;;;9.80;;
58472;SDS011;44775;51.564;5.460;2023-07-28T02:09:35;15.52;;;10.82;;
58472;SDS011;44775;51.564;5.460;2023-07-28T02:12:00;17.00;;;10.98;;
58472;SDS011;44775;51.564;5.460;2023-07-28T02:14:25;19.80;;;11.23;;
58472;SDS011;44775;51.564;5.460;2023-07-28T02:16:51;15.80;;;10.88;;
58472;SDS011;44775;51.564;5.460;2023-07-28T02:19:16;19.10;;;11.00;;
58472;SDS011;44775;51.564;5.460;2023-07-28T02:21:41;15.82;;;10.40;;
58472;SDS011;44775;51.564;5.460;2023-07-28T02:24:07;17.38;;;10.75;;
58472;SDS011;44775;51.564;5.460;2023-07-28T02:26:32;16.67;;;10.70;;
58472;SDS011;44775;51.564;5.460;2023-07-28T02:28:57;16.38;;;10.73;;
58472;SDS011;44775;51.564;5.460;2023-07-28T02:31:22;19.60;;;11.57;;
58472;SDS011;44775;51.564;5.460;2023-07-28T02:33:48;18.00;;;11.70;;
58472;SDS011;44775;51.564;5.460;2023-07-28T02:36:13;19.17;;;12.10;;
58472;SDS011;44775;51.564;5.460;2023-07-28T02:38:38;19.85;;;11.43;;
58472;SDS011;44775;51.564;5.460;2023-07-28T02:41:04;23.23;;;12.70;;
58472;SDS011;44775;51.564;5.460;2023-07-28T02:43:29;20.45;;;12.25;;
58472;SDS011;44775;51.564;5.460;2023-07-28T02:45:55;22.75;;;12.68;;
58472;SDS011;44775;51.564;5.460;2023-07-28T02:48:21;21.83;;;12.98;;
58472;SDS011;44775;51.564;5.460;2023-07-28T02:50:48;22.95;;;13.45;;
58472;SDS011;44775;51.564;5.460;2023-07-28T02:53:16;22.27;;;12.55;;
58472;SDS011;44775;51.564;5.460;2023-07-28T02:55:45;22.83;;;12.95;;
58472;SDS011;44775;51.564;5.460;2023-07-28T02:58:12;23.45;;;13.00;;
58472;SDS011;44775;51.564;5.460;2023-07-28T03:00:38;25.90;;;14.02;;
58472;SDS011;44775;51.564;5.460;2023-07-28T03:03:05;27.30;;;14.18;;
58472;SDS011;44775;51.564;5.460;2023-07-28T03:05:31;28.00;;;14.07;;
58472;SDS011;44775;51.564;5.460;2023-07-28T03:07:57;28.92;;;15.75;;
58472;SDS011;44775;51.564;5.460;2023-07-28T03:10:22;27.85;;;14.18;;
58472;SDS011;44775;51.564;5.460;2023-07-28T03:12:47;28.15;;;14.40;;
58472;SDS011;44775;51.564;5.460;2023-07-28T03:15:12;27.38;;;14.77;;
58472;SDS011;44775;51.564;5.460;2023-07-28T03:17:38;25.95;;;13.80;;
58472;SDS011;44775;51.564;5.460;2023-07-28T03:20:03;28.45;;;14.95;;
58472;SDS011;44775;51.564;5.460;2023-07-28T03:22:29;27.35;;;15.25;;
58472;SDS011;44775;51.564;5.460;2023-07-28T03:24:55;30.77;;;14.63;;
58472;SDS011;44775;51.564;5.460;2023-07-28T03:27:21;28.10;;;15.23;;
58472;SDS011;44775;51.564;5.460;2023-07-28T03:29:46;30.60;;;15.80;;
58472;SDS011;44775;51.564;5.460;2023-07-28T03:32:12;32.70;;;15.30;;
58472;SDS011;44775;51.564;5.460;2023-07-28T03:34:37;32.00;;;15.48;;
58472;SDS011;44775;51.564;5.460;2023-07-28T03:37:02;32.42;;;15.73;;
58472;SDS011;44775;51.564;5.460;2023-07-28T03:39:28;31.90;;;15.23;;
58472;SDS011;44775;51.564;5.460;2023-07-28T03:41:54;33.83;;;16.70;;
58472;SDS011;44775;51.564;5.460;2023-07-28T03:44:20;34.67;;;16.80;;
58472;SDS011;44775;51.564;5.460;2023-07-28T03:46:45;36.53;;;16.23;;
58472;SDS011;44775;51.564;5.460;2023-07-28T03:49:11;32.80;;;15.85;;
58472;SDS011;44775;51.564;5.460;2023-07-28T03:51:36;35.47;;;16.77;;
58472;SDS011;44775;51.564;5.460;2023-07-28T03:54:01;34.50;;;16.27;;
58472;SDS011;44775;51.564;5.460;2023-07-28T03:56:27;35.45;;;16.48;;
58472;SDS011;44775;51.564;5.460;2023-07-28T03:58:53;34.45;;;16.50;;
58472;SDS011;44775;51.564;5.460;2023-07-28T04:01:19;36.05;;;17.27;;
58472;SDS011;44775;51.564;5.460;2023-07-28T04:03:46;36.17;;;16.55;;
58472;SDS011;44775;51.564;5.460;2023-07-28T04:06:11;37.35;;;17.33;;
58472;SDS011;44775;51.564;5.460;2023-07-28T04:08:37;36.85;;;18.05;;
58472;SDS011;44775;51.564;5.460;2023-07-28T04:11:02;36.90;;;18.10;;
58472;SDS011;44775;51.564;5.460;2023-07-28T04:13:28;35.90;;;17.27;;
58472;SDS011;44775;51.564;5.460;2023-07-28T04:15:53;40.05;;;17.38;;
58472;SDS011;44775;51.564;5.460;2023-07-28T04:18:19;38.25;;;17.40;;
58472;SDS011;44775;51.564;5.460;2023-07-28T04:20:45;35.50;;;18.05;;
58472;SDS011;44775;51.564;5.460;2023-07-28T04:23:11;37.13;;;17.77;;
58472;SDS011;44775;51.564;5.460;2023-07-28T04:25:36;37.92;;;16.60;;
58472;SDS011;44775;51.564;5.460;2023-07-28T04:28:01;35.08;;;17.52;;
58472;SDS011;44775;51.564;5.460;2023-07-28T04:30:27;41.38;;;17.80;;
58472;SDS011;44775;51.564;5.460;2023-07-28T04:32:52;39.35;;;18.98;;
58472;SDS011;44775;51.564;5.460;2023-07-28T04:35:17;40.00;;;18.50;;
58472;SDS011;44775;51.564;5.460;2023-07-28T04:37:43;38.08;;;18.63;;
58472;SDS011;44775;51.564;5.460;2023-07-28T04:40:08;38.63;;;18.58;;
58472;SDS011;44775;51.564;5.460;2023-07-28T04:42:34;39.92;;;19.17;;
58472;SDS011;44775;51.564;5.460;2023-07-28T04:44:59;35.42;;;17.73;;
58472;SDS011;44775;51.564;5.460;2023-07-28T04:47:25;43.42;;;18.80;;
58472;SDS011;44775;51.564;5.460;2023-07-28T04:49:50;33.00;;;17.52;;
58472;SDS011;44775;51.564;5.460;2023-07-28T04:52:15;35.50;;;17.40;;
58472;SDS011;44775;51.564;5.460;2023-07-28T04:54:41;36.67;;;17.90;;
58472;SDS011;44775;51.564;5.460;2023-07-28T04:57:06;36.42;;;17.15;;
58472;SDS011;44775;51.564;5.460;2023-07-28T04:59:31;33.58;;;16.50;;
58472;SDS011;44775;51.564;5.460;2023-07-28T05:01:57;30.83;;;16.25;;
58472;SDS011;44775;51.564;5.460;2023-07-28T05:04:22;34.30;;;17.45;;
58472;SDS011;44775;51.564;5.460;2023-07-28T05:06:47;31.55;;;17.17;;
58472;SDS011;44775;51.564;5.460;2023-07-28T05:09:13;32.63;;;16.38;;
58472;SDS011;44775;51.564;5.460;2023-07-28T05:11:38;30.70;;;17.17;;
58472;SDS011;44775;51.564;5.460;2023-07-28T05:14:03;31.02;;;17.40;;
58472;SDS011;44775;51.564;5.460;2023-07-28T05:16:31;29.42;;;16.60;;
58472;SDS011;44775;51.564;5.460;2023-07-28T05:18:57;32.47;;;16.50;;
58472;SDS011;44775;51.564;5.460;2023-07-28T05:21:22;30.83;;;17.55;;
58472;SDS011;44775;51.564;5.460;2023-07-28T05:23:47;30.55;;;17.15;;
58472;SDS011;44775;51.564;5.460;2023-07-28T05:26:13;28.13;;;15.63;;
58472;SDS011;44775;51.564;5.460;2023-07-28T05:28:38;32.05;;;16.88;;
58472;SDS011;44775;51.564;5.460;2023-07-28T05:31:06;32.25;;;17.23;;
58472;SDS011;44775;51.564;5.460;2023-07-28T05:33:32;28.73;;;16.92;;
58472;SDS011;44775;51.564;5.460;2023-07-28T05:36:04;29.50;;;17.13;;
58472;SDS011;44775;51.564;5.460;2023-07-28T05:38:29;29.20;;;17.20;;
58472;SDS011;44775;51.564;5.460;2023-07-28T05:41:01;29.80;;;16.45;;
58472;SDS011;44775;51.564;5.460;2023-07-28T05:43:28;28.80;;;16.63;;
58472;SDS011;44775;51.564;5.460;2023-07-28T05:45:54;30.13;;;16.02;;
58472;SDS011;44775;51.564;5.460;2023-07-28T05:48:20;28.65;;;16.38;;
58472;SDS011;44775;51.564;5.460;2023-07-28T05:50:45;31.45;;;16.98;;
58472;SDS011;44775;51.564;5.460;2023-07-28T05:53:10;33.35;;;17.63;;
58472;SDS011;44775;51.564;5.460;2023-07-28T05:55:36;30.92;;;18.48;;
58472;SDS011;44775;51.564;5.460;2023-07-28T05:58:01;34.60;;;19.40;;
58472;SDS011;44775;51.564;5.460;2023-07-28T06:00:26;32.42;;;18.63;;
58472;SDS011;44775;51.564;5.460;2023-07-28T06:02:53;33.42;;;18.10;;
58472;SDS011;44775;51.564;5.460;2023-07-28T06:05:18;37.42;;;20.52;;
58472;SDS011;44775;51.564;5.460;2023-07-28T06:07:44;36.50;;;22.02;;
58472;SDS011;44775;51.564;5.460;2023-07-28T06:10:09;36.03;;;21.08;;
58472;SDS011;44775;51.564;5.460;2023-07-28T06:12:34;40.17;;;23.15;;
58472;SDS011;44775;51.564;5.460;2023-07-28T06:15:01;40.38;;;24.33;;
58472;SDS011;44775;51.564;5.460;2023-07-28T06:17:26;43.03;;;24.70;;
58472;SDS011;44775;51.564;5.460;2023-07-28T06:19:53;45.85;;;26.23;;
58472;SDS011;44775;51.564;5.460;2023-07-28T06:22:18;46.58;;;26.23;;
58472;SDS011;44775;51.564;5.460;2023-07-28T06:24:44;43.47;;;25.80;;
58472;SDS011;44775;51.564;5.460;2023-07-28T06:27:09;49.55;;;26.90;;
58472;SDS011;44775;51.564;5.460;2023-07-28T06:29:35;54.70;;;28.73;;
58472;SDS011;44775;51.564;5.460;2023-07-28T06:32:01;57.90;;;30.40;;
58472;SDS011;44775;51.564;5.460;2023-07-28T06:34:26;58.00;;;30.42;;
58472;SDS011;44775;51.564;5.460;2023-07-28T06:36:51;61.50;;;29.58;;
58472;SDS011;44775;51.564;5.460;2023-07-28T06:39:17;54.95;;;28.90;;
58472;SDS011;44775;51.564;5.460;2023-07-28T06:41:42;54.92;;;28.67;;
58472;SDS011;44775;51.564;5.460;2023-07-28T06:44:08;53.80;;;28.52;;
58472;SDS011;44775;51.564;5.460;2023-07-28T06:46:34;50.63;;;27.80;;
58472;SDS011;44775;51.564;5.460;2023-07-28T06:48:59;50.63;;;26.75;;
58472;SDS011;44775;51.564;5.460;2023-07-28T06:51:25;51.05;;;25.90;;
58472;SDS011;44775;51.564;5.460;2023-07-28T06:53:50;50.70;;;26.52;;
58472;SDS011;44775;51.564;5.460;2023-07-28T06:56:16;48.00;;;26.38;;
58472;SDS011;44775;51.564;5.460;2023-07-28T06:58:41;44.20;;;21.45;;
58472;SDS011;44775;51.564;5.460;2023-07-28T07:01:07;45.97;;;24.38;;
58472;SDS011;44775;51.564;5.460;2023-07-28T07:03:35;42.45;;;23.15;;
58472;SDS011;44775;51.564;5.460;2023-07-28T07:06:03;43.17;;;23.40;;
58472;SDS011;44775;51.564;5.460;2023-07-28T07:08:29;38.78;;;21.20;;
58472;SDS011;44775;51.564;5.460;2023-07-28T07:10:54;40.58;;;22.65;;
58472;SDS011;44775;51.564;5.460;2023-07-28T07:13:20;40.33;;;21.70;;
58472;SDS011;44775;51.564;5.460;2023-07-28T07:15:45;38.63;;;22.35;;
58472;SDS011;44775;51.564;5.460;2023-07-28T07:18:11;37.53;;;19.92;;
58472;SDS011;44775;51.564;5.460;2023-07-28T07:20:37;36.70;;;20.60;;
58472;SDS011;44775;51.564;5.460;2023-07-28T07:23:03;35.92;;;20.20;;
58472;SDS011;44775;51.564;5.460;2023-07-28T07:25:29;36.88;;;20.40;;
58472;SDS011;44775;51.564;5.460;2023-07-28T07:27:55;37.55;;;21.88;;
58472;SDS011;44775;51.564;5.460;2023-07-28T07:30:20;38.83;;;21.63;;
58472;SDS011;44775;51.564;5.460;2023-07-28T07:32:46;36.22;;;20.50;;
58472;SDS011;44775;51.564;5.460;2023-07-28T07:35:11;35.38;;;19.90;;
58472;SDS011;44775;51.564;5.460;2023-07-28T07:37:37;33.58;;;19.25;;
58472;SDS011;44775;51.564;5.460;2023-07-28T07:40:03;31.55;;;18.73;;
58472;SDS011;44775;51.564;5.460;2023-07-28T07:42:41;32.55;;;18.90;;
58472;SDS011;44775;51.564;5.460;2023-07-28T07:45:08;23.67;;;15.13;;
58472;SDS011;44775;51.564;5.460;2023-07-28T07:47:35;31.85;;;17.80;;
58472;SDS011;44775;51.564;5.460;2023-07-28T07:50:00;28.52;;;16.67;;
58472;SDS011;44775;51.564;5.460;2023-07-28T07:52:25;27.63;;;16.77;;
58472;SDS011;44775;51.564;5.460;2023-07-28T07:54:51;28.42;;;16.80;;
58472;SDS011;44775;51.564;5.460;2023-07-28T07:57:16;25.92;;;15.85;;
58472;SDS011;44775;51.564;5.460;2023-07-28T07:59:42;24.98;;;15.13;;
58472;SDS011;44775;51.564;5.460;2023-07-28T08:02:08;24.38;;;14.82;;
58472;SDS011;44775;51.564;5.460;2023-07-28T08:04:35;32.88;;;16.38;;
58472;SDS011;44775;51.564;5.460;2023-07-28T08:07:01;25.38;;;15.75;;
58472;SDS011;44775;51.564;5.460;2023-07-28T08:09:29;23.83;;;15.98;;
58472;SDS011;44775;51.564;5.460;2023-07-28T08:11:54;22.63;;;14.45;;
58472;SDS011;44775;51.564;5.460;2023-07-28T08:14:20;23.48;;;15.55;;
58472;SDS011;44775;51.564;5.460;2023-07-28T08:16:45;23.38;;;15.77;;
58472;SDS011;44775;51.564;5.460;2023-07-28T08:19:11;24.60;;;15.32;;
58472;SDS011;44775;51.564;5.460;2023-07-28T08:21:36;23.98;;;14.65;;
58472;SDS011;44775;51.564;5.460;2023-07-28T08:24:02;22.85;;;15.40;;
58472;SDS011;44775;51.564;5.460;2023-07-28T08:26:28;23.58;;;15.07;;
58472;SDS011;44775;51.564;5.460;2023-07-28T08:28:54;24.67;;;14.95;;
58472;SDS011;44775;51.564;5.460;2023-07-28T08:31:20;23.52;;;15.93;;
58472;SDS011;44775;51.564;5.460;2023-07-28T08:33:45;22.23;;;15.35;;
58472;SDS011;44775;51.564;5.460;2023-07-28T08:36:11;22.50;;;15.65;;
58472;SDS011;44775;51.564;5.460;2023-07-28T08:38:36;22.10;;;15.13;;
58472;SDS011;44775;51.564;5.460;2023-07-28T08:41:01;19.73;;;14.52;;
58472;SDS011;44775;51.564;5.460;2023-07-28T08:43:27;19.52;;;15.02;;
58472;SDS011;44775;51.564;5.460;2023-07-28T08:45:54;21.02;;;15.02;;
58472;SDS011;44775;51.564;5.460;2023-07-28T08:48:20;18.37;;;15.07;;
58472;SDS011;44775;51.564;5.460;2023-07-28T08:50:45;17.55;;;13.70;;
58472;SDS011;44775;51.564;5.460;2023-07-28T08:53:11;19.02;;;14.20;;
58472;SDS011;44775;51.564;5.460;2023-07-28T08:55:37;18.23;;;13.82;;
58472;SDS011;44775;51.564;5.460;2023-07-28T08:58:15;17.25;;;15.07;;
58472;SDS011;44775;51.564;5.460;2023-07-28T09:00:41;17.88;;;14.30;;
58472;SDS011;44775;51.564;5.460;2023-07-28T09:03:09;15.80;;;14.10;;
58472;SDS011;44775;51.564;5.460;2023-07-28T09:08:00;14.18;;;12.68;;
58472;SDS011;44775;51.564;5.460;2023-07-28T09:10:29;14.68;;;13.13;;
58472;SDS011;44775;51.564;5.460;2023-07-28T09:13:07;15.77;;;12.68;;
58472;SDS011;44775;51.564;5.460;2023-07-28T09:15:35;12.43;;;10.95;;
58472;SDS011;44775;51.564;5.460;2023-07-28T09:18:00;12.25;;;11.02;;
58472;SDS011;44775;51.564;5.460;2023-07-28T09:20:26;12.45;;;10.20;;
58472;SDS011;44775;51.564;5.460;2023-07-28T09:23:00;11.60;;;10.00;;
58472;SDS011;44775;51.564;5.460;2023-07-28T09:25:25;10.70;;;9.52;;
58472;SDS011;44775;51.564;5.460;2023-07-28T09:27:54;10.38;;;9.27;;
58472;SDS011;44775;51.564;5.460;2023-07-28T09:30:21;12.52;;;9.60;;
58472;SDS011;44775;51.564;5.460;2023-07-28T09:32:51;11.80;;;9.55;;
58472;SDS011;44775;51.564;5.460;2023-07-28T09:35:18;11.13;;;10.02;;
58472;SDS011;44775;51.564;5.460;2023-07-28T09:37:45;10.50;;;9.50;;
58472;SDS011;44775;51.564;5.460;2023-07-28T09:40:14;11.40;;;9.77;;
58472;SDS011;44775;51.564;5.460;2023-07-28T09:42:44;9.90;;;8.93;;
58472;SDS011;44775;51.564;5.460;2023-07-28T09:45:14;8.88;;;8.02;;
58472;SDS011;44775;51.564;5.460;2023-07-28T09:47:42;9.32;;;8.23;;
58472;SDS011;44775;51.564;5.460;2023-07-28T09:50:09;10.52;;;8.60;;
58472;SDS011;44775;51.564;5.460;2023-07-28T09:52:41;8.93;;;7.55;;
58472;SDS011;44775;51.564;5.460;2023-07-28T09:55:09;8.60;;;7.70;;
58472;SDS011;44775;51.564;5.460;2023-07-28T09:57:38;8.68;;;7.88;;
58472;SDS011;44775;51.564;5.460;2023-07-28T10:00:09;7.82;;;7.13;;
58472;SDS011;44775;51.564;5.460;2023-07-28T10:02:36;8.35;;;7.55;;
58472;SDS011;44775;51.564;5.460;2023-07-28T10:05:02;8.25;;;7.10;;
58472;SDS011;44775;51.564;5.460;2023-07-28T10:07:29;7.80;;;7.00;;
58472;SDS011;44775;51.564;5.460;2023-07-28T10:09:55;7.63;;;6.93;;
58472;SDS011;44775;51.564;5.460;2023-07-28T10:12:25;7.70;;;6.88;;
58472;SDS011;44775;51.564;5.460;2023-07-28T10:15:02;8.05;;;6.55;;
58472;SDS011;44775;51.564;5.460;2023-07-28T10:17:32;7.00;;;5.93;;
58472;SDS011;44775;51.564;5.460;2023-07-28T10:20:00;6.40;;;5.80;;
58472;SDS011;44775;51.564;5.460;2023-07-28T10:22:31;5.97;;;5.43;;
58472;SDS011;44775;51.564;5.460;2023-07-28T10:25:00;5.90;;;5.40;;
58472;SDS011;44775;51.564;5.460;2023-07-28T10:27:35;6.32;;;4.88;;
58472;SDS011;44775;51.564;5.460;2023-07-28T10:30:03;5.50;;;5.00;;
58472;SDS011;44775;51.564;5.460;2023-07-28T10:32:41;6.68;;;5.40;;
58472;SDS011;44775;51.564;5.460;2023-07-28T10:37:34;5.55;;;5.07;;
58472;SDS011;44775;51.564;5.460;2023-07-28T10:43:00;5.63;;;5.10;;
58472;SDS011;44775;51.564;5.460;2023-07-28T10:45:28;6.30;;;4.90;;
58472;SDS011;44775;51.564;5.460;2023-07-28T10:47:57;5.22;;;4.82;;
58472;SDS011;44775;51.564;5.460;2023-07-28T10:50:28;5.05;;;4.60;;
58472;SDS011;44775;51.564;5.460;2023-07-28T10:52:55;4.60;;;4.20;;
58472;SDS011;44775;51.564;5.460;2023-07-28T10:55:21;4.68;;;4.28;;
58472;SDS011;44775;51.564;5.460;2023-07-28T10:57:49;4.20;;;3.90;;
58472;SDS011;44775;51.564;5.460;2023-07-28T11:00:17;5.20;;;3.47;;
58472;SDS011;44775;51.564;5.460;2023-07-28T11:02:48;6.80;;;3.10;;
58472;SDS011;44775;51.564;5.460;2023-07-28T11:05:21;3.88;;;2.45;;
58472;SDS011;44775;51.564;5.460;2023-07-28T11:07:48;2.15;;;1.90;;
58472;SDS011;44775;51.564;5.460;2023-07-28T11:10:14;4.43;;;1.80;;
58472;SDS011;44775;51.564;5.460;2023-07-28T11:12:43;1.80;;;1.70;;
58472;SDS011;44775;51.564;5.460;2023-07-28T11:15:09;2.45;;;1.90;;
58472;SDS011;44775;51.564;5.460;2023-07-28T11:17:38;3.00;;;1.90;;
58472;SDS011;44775;51.564;5.460;2023-07-28T11:20:26;3.95;;;2.05;;
58472;SDS011;44775;51.564;5.460;2023-07-28T11:25:19;1.98;;;1.80;;
58472;SDS011;44775;51.564;5.460;2023-07-28T11:27:46;6.40;;;2.70;;
58472;SDS011;44775;51.564;5.460;2023-07-28T11:30:12;3.92;;;2.00;;
58472;SDS011;44775;51.564;5.460;2023-07-28T11:32:38;3.30;;;1.90;;
58472;SDS011;44775;51.564;5.460;2023-07-28T11:37:30;3.15;;;1.80;;
58472;SDS011;44775;51.564;5.460;2023-07-28T11:39:58;1.98;;;1.80;;
58472;SDS011;44775;51.564;5.460;2023-07-28T11:42:25;2.30;;;1.75;;
58472;SDS011;44775;51.564;5.460;2023-07-28T11:44:52;2.97;;;1.90;;
58472;SDS011;44775;51.564;5.460;2023-07-28T11:47:17;2.42;;;1.58;;
58472;SDS011;44775;51.564;5.460;2023-07-28T11:49:49;3.78;;;1.73;;
58472;SDS011;44775;51.564;5.460;2023-07-28T11:52:16;2.17;;;1.80;;
58472;SDS011;44775;51.564;5.460;2023-07-28T11:54:41;2.20;;;2.00;;
58472;SDS011;44775;51.564;5.460;2023-07-28T11:57:08;2.08;;;1.85;;
58472;SDS011;44775;51.564;5.460;2023-07-28T11:59:34;2.83;;;1.70;;
58472;SDS011;44775;51.564;5.460;2023-07-28T12:02:03;2.67;;;1.50;;
58472;SDS011;44775;51.564;5.460;2023-07-28T12:04:31;1.90;;;1.40;;
58472;SDS011;44775;51.564;5.460;2023-07-28T12:12:18;1.50;;;1.35;;
58472;SDS011;44775;51.564;5.460;2023-07-28T12:14:45;2.13;;;1.52;;
58472;SDS011;44775;51.564;5.460;2023-07-28T12:17:12;1.70;;;1.48;;
58472;SDS011;44775;51.564;5.460;2023-07-28T12:20:01;2.15;;;1.40;;
58472;SDS011;44775;51.564;5.460;2023-07-28T12:22:40;1.73;;;1.40;;
58472;SDS011;44775;51.564;5.460;2023-07-28T12:25:06;3.50;;;1.50;;
58472;SDS011;44775;51.564;5.460;2023-07-28T12:27:32;1.70;;;1.60;;
58472;SDS011;44775;51.564;5.460;2023-07-28T12:29:57;1.60;;;1.50;;
58472;SDS011;44775;51.564;5.460;2023-07-28T12:32:23;1.88;;;1.50;;
58472;SDS011;44775;51.564;5.460;2023-07-28T12:34:48;1.80;;;1.63;;
58472;SDS011;44775;51.564;5.460;2023-07-28T12:37:14;1.50;;;1.40;;
58472;SDS011;44775;51.564;5.460;2023-07-28T12:39:40;2.45;;;1.55;;
58472;SDS011;44775;51.564;5.460;2023-07-28T12:42:09;2.08;;;1.10;;
58472;SDS011;44775;51.564;5.460;2023-07-28T12:44:36;1.52;;;1.38;;
58472;SDS011;44775;51.564;5.460;2023-07-28T12:47:02;1.65;;;1.35;;
58472;SDS011;44775;51.564;5.460;2023-07-28T12:49:28;1.40;;;1.30;;
58472;SDS011;44775;51.564;5.460;2023-07-28T12:51:54;1.45;;;1.35;;
58472;SDS011;44775;51.564;5.460;2023-07-28T12:54:21;1.35;;;1.20;;
58472;SDS011;44775;51.564;5.460;2023-07-28T12:56:47;2.97;;;1.60;;
58472;SDS011;44775;51.564;5.460;2023-07-28T12:59:13;2.17;;;1.33;;
58472;SDS011;44775;51.564;5.460;2023-07-28T13:01:39;2.10;;;1.48;;
58472;SDS011;44775;51.564;5.460;2023-07-28T13:04:04;3.22;;;1.30;;
58472;SDS011;44775;51.564;5.460;2023-07-28T13:06:29;2.22;;;1.40;;
58472;SDS011;44775;51.564;5.460;2023-07-28T13:08:54;1.48;;;1.33;;
58472;SDS011;44775;51.564;5.460;2023-07-28T13:11:22;1.30;;;1.20;;
58472;SDS011;44775;51.564;5.460;2023-07-28T13:13:48;1.48;;;1.20;;
58472;SDS011;44775;51.564;5.460;2023-07-28T13:16:13;1.45;;;1.30;;
58472;SDS011;44775;51.564;5.460;2023-07-28T13:18:39;1.50;;;1.35;;
58472;SDS011;44775;51.564;5.460;2023-07-28T13:21:05;1.70;;;1.40;;
58472;SDS011;44775;51.564;5.460;2023-07-28T13:23:31;1.40;;;1.30;;
58472;SDS011;44775;51.564;5.460;2023-07-28T13:25:57;2.30;;;1.50;;
58472;SDS011;44775;51.564;5.460;2023-07-28T13:28:22;2.25;;;1.40;;
58472;SDS011;44775;51.564;5.460;2023-07-28T13:30:48;1.58;;;1.30;;
58472;SDS011;44775;51.564;5.460;2023-07-28T13:33:14;2.45;;;1.50;;
58472;SDS011;44775;51.564;5.460;2023-07-28T13:35:39;2.67;;;1.40;;
58472;SDS011;44775;51.564;5.460;2023-07-28T13:38:05;1.58;;;1.27;;
58472;SDS011;44775;51.564;5.460;2023-07-28T13:40:30;1.38;;;1.20;;
58472;SDS011;44775;51.564;5.460;2023-07-28T13:42:55;1.20;;;1.10;;
58472;SDS011;44775;51.564;5.460;2023-07-28T13:45:21;2.08;;;1.50;;
58472;SDS011;44775;51.564;5.460;2023-07-28T13:47:46;2.47;;;1.40;;
58472;SDS011;44775;51.564;5.460;2023-07-28T13:50:11;2.35;;;1.20;;
58472;SDS011;44775;51.564;5.460;2023-07-28T13:52:37;1.42;;;1.30;;
58472;SDS011;44775;51.564;5.460;2023-07-28T13:55:02;2.15;;;1.35;;
58472;SDS011;44775;51.564;5.460;2023-07-28T13:57:29;1.70;;;1.30;;
58472;SDS011;44775;51.564;5.460;2023-07-28T13:59:56;3.78;;;1.20;;
58472;SDS011;44775;51.564;5.460;2023-07-28T14:02:21;2.58;;;1.23;;
58472;SDS011;44775;51.564;5.460;2023-07-28T14:04:49;2.67;;;1.20;;
58472;SDS011;44775;51.564;5.460;2023-07-28T14:07:15;2.00;;;1.20;;
58472;SDS011;44775;51.564;5.460;2023-07-28T14:09:40;4.80;;;1.25;;
58472;SDS011;44775;51.564;5.460;2023-07-28T14:12:06;1.33;;;1.20;;
58472;SDS011;44775;51.564;5.460;2023-07-28T14:14:32;3.50;;;1.50;;
58472;SDS011;44775;51.564;5.460;2023-07-28T14:16:57;1.75;;;1.35;;
58472;SDS011;44775;51.564;5.460;2023-07-28T14:19:22;3.42;;;1.90;;
58472;SDS011;44775;51.564;5.460;2023-07-28T14:21:48;2.15;;;1.90;;
58472;SDS011;44775;51.564;5.460;2023-07-28T14:24:14;3.85;;;1.70;;
58472;SDS011;44775;51.564;5.460;2023-07-28T14:26:39;3.28;;;1.70;;
58472;SDS011;44775;51.564;5.460;2023-07-28T14:29:05;1.88;;;1.70;;
58472;SDS011;44775;51.564;5.460;2023-07-28T14:31:30;1.50;;;1.40;;
58472;SDS011;44775;51.564;5.460;2023-07-28T14:33:56;2.47;;;1.73;;
58472;SDS011;44775;51.564;5.460;2023-07-28T14:36:22;1.88;;;1.70;;
58472;SDS011;44775;51.564;5.460;2023-07-28T14:38:47;1.55;;;1.40;;
58472;SDS011;44775;51.564;5.460;2023-07-28T14:41:12;2.08;;;1.48;;
58472;SDS011;44775;51.564;5.460;2023-07-28T14:43:38;2.72;;;1.50;;
58472;SDS011;44775;51.564;5.460;2023-07-28T14:46:03;1.58;;;1.33;;
58472;SDS011;44775;51.564;5.460;2023-07-28T14:48:28;2.95;;;1.50;;